sensor_id;sensor_type;location;lat;lon;timestamp;P1;durP1;ratioP1;P2;durP2;ratioP2
41201;SDS011;26936;50.524;8.684;2023-05-16T00:00:05;28.85;;;18.00;;
41201;SDS011;26936;50.524;8.684;2023-05-16T00:02:34;32.17;;;18.95;;
41201;SDS011;26936;50.524;8.684;2023-05-16T00:05:01;28.85;;;18.83;;
41201;SDS011;26936;50.524;8.684;2023-05-16T00:07:28;34.38;;;19.23;;
41201;SDS011;26936;50.524;8.684;2023-05-16T00:09:54;32.13;;;20.67;;
41201;SDS011;26936;50.524;8.684;2023-05-16T00:12:19;33.33;;;19.48;;
41201;SDS011;26936;50.524;8.684;2023-05-16T00:14:46;37.10;;;21.08;;
41201;SDS011;26936;50.524;8.684;2023-05-16T00:17:11;36.17;;;20.77;;
41201;SDS011;26936;50.524;8.684;2023-05-16T00:19:37;35.00;;;20.45;;
41201;SDS011;26936;50.524;8.684;2023-05-16T00:22:06;33.88;;;20.08;;
41201;SDS011;26936;50.524;8.684;2023-05-16T00:24:32;34.95;;;21.23;;
41201;SDS011;26936;50.524;8.684;2023-05-16T00:26:58;40.83;;;21.15;;
41201;SDS011;26936;50.524;8.684;2023-05-16T00:29:23;31.00;;;19.33;;
41201;SDS011;26936;50.524;8.684;2023-05-16T00:31:48;36.50;;;20.40;;
41201;SDS011;26936;50.524;8.684;2023-05-16T00:34:14;37.17;;;20.92;;
41201;SDS011;26936;50.524;8.684;2023-05-16T00:36:40;32.22;;;20.10;;
41201;SDS011;26936;50.524;8.684;2023-05-16T00:39:05;34.97;;;19.15;;
41201;SDS011;26936;50.524;8.684;2023-05-16T00:41:30;28.05;;;17.20;;
41201;SDS011;26936;50.524;8.684;2023-05-16T00:43:57;31.15;;;17.65;;
41201;SDS011;26936;50.524;8.684;2023-05-16T00:46:23;32.35;;;18.45;;
41201;SDS011;26936;50.524;8.684;2023-05-16T00:48:48;29.90;;;17.85;;
41201;SDS011;26936;50.524;8.684;2023-05-16T00:51:14;30.60;;;17.83;;
41201;SDS011;26936;50.524;8.684;2023-05-16T00:53:39;31.95;;;17.92;;
41201;SDS011;26936;50.524;8.684;2023-05-16T00:56:05;29.38;;;18.23;;
41201;SDS011;26936;50.524;8.684;2023-05-16T00:58:30;28.67;;;17.15;;
41201;SDS011;26936;50.524;8.684;2023-05-16T01:00:57;27.27;;;17.20;;
41201;SDS011;26936;50.524;8.684;2023-05-16T01:03:23;26.77;;;17.42;;
41201;SDS011;26936;50.524;8.684;2023-05-16T01:05:48;31.42;;;17.58;;
41201;SDS011;26936;50.524;8.684;2023-05-16T01:08:14;30.10;;;17.33;;
41201;SDS011;26936;50.524;8.684;2023-05-16T01:10:43;31.67;;;18.60;;
41201;SDS011;26936;50.524;8.684;2023-05-16T01:13:26;29.77;;;18.23;;
41201;SDS011;26936;50.524;8.684;2023-05-16T01:16:04;29.08;;;18.05;;
41201;SDS011;26936;50.524;8.684;2023-05-16T01:18:50;30.77;;;18.15;;
41201;SDS011;26936;50.524;8.684;2023-05-16T01:24:13;34.97;;;20.23;;
41201;SDS011;26936;50.524;8.684;2023-05-16T01:26:48;32.63;;;19.80;;
41201;SDS011;26936;50.524;8.684;2023-05-16T01:29:14;33.53;;;20.83;;
41201;SDS011;26936;50.524;8.684;2023-05-16T01:31:39;34.35;;;20.10;;
41201;SDS011;26936;50.524;8.684;2023-05-16T01:34:04;36.38;;;20.20;;
41201;SDS011;26936;50.524;8.684;2023-05-16T01:39:29;32.65;;;18.80;;
41201;SDS011;26936;50.524;8.684;2023-05-16T01:42:06;31.85;;;18.55;;
41201;SDS011;26936;50.524;8.684;2023-05-16T01:44:35;36.38;;;21.23;;
41201;SDS011;26936;50.524;8.684;2023-05-16T01:47:08;32.17;;;19.98;;
41201;SDS011;26936;50.524;8.684;2023-05-16T01:49:38;32.15;;;19.13;;
41201;SDS011;26936;50.524;8.684;2023-05-16T01:52:18;33.00;;;19.83;;
41201;SDS011;26936;50.524;8.684;2023-05-16T01:54:49;33.20;;;19.48;;
41201;SDS011;26936;50.524;8.684;2023-05-16T01:57:18;33.78;;;19.70;;
41201;SDS011;26936;50.524;8.684;2023-05-16T01:59:48;34.40;;;19.70;;
41201;SDS011;26936;50.524;8.684;2023-05-16T02:02:16;35.67;;;20.45;;
41201;SDS011;26936;50.524;8.684;2023-05-16T02:04:42;32.63;;;19.20;;
41201;SDS011;26936;50.524;8.684;2023-05-16T02:07:07;35.57;;;20.10;;
41201;SDS011;26936;50.524;8.684;2023-05-16T02:09:33;36.45;;;21.10;;
41201;SDS011;26936;50.524;8.684;2023-05-16T02:11:58;29.77;;;18.75;;
41201;SDS011;26936;50.524;8.684;2023-05-16T02:14:24;32.35;;;19.20;;
41201;SDS011;26936;50.524;8.684;2023-05-16T02:16:49;35.13;;;20.08;;
41201;SDS011;26936;50.524;8.684;2023-05-16T02:19:15;30.30;;;18.63;;
41201;SDS011;26936;50.524;8.684;2023-05-16T02:21:40;31.70;;;18.67;;
41201;SDS011;26936;50.524;8.684;2023-05-16T02:24:05;29.80;;;18.53;;
41201;SDS011;26936;50.524;8.684;2023-05-16T02:26:30;30.05;;;19.08;;
41201;SDS011;26936;50.524;8.684;2023-05-16T02:28:56;31.90;;;18.75;;
41201;SDS011;26936;50.524;8.684;2023-05-16T02:31:25;33.25;;;19.75;;
41201;SDS011;26936;50.524;8.684;2023-05-16T02:33:52;32.30;;;19.55;;
41201;SDS011;26936;50.524;8.684;2023-05-16T02:36:17;29.08;;;18.35;;
41201;SDS011;26936;50.524;8.684;2023-05-16T02:38:42;29.63;;;18.75;;
41201;SDS011;26936;50.524;8.684;2023-05-16T02:41:08;31.70;;;18.87;;
41201;SDS011;26936;50.524;8.684;2023-05-16T02:43:33;32.43;;;19.83;;
41201;SDS011;26936;50.524;8.684;2023-05-16T02:45:58;31.45;;;18.10;;
41201;SDS011;26936;50.524;8.684;2023-05-16T02:48:24;28.88;;;17.95;;
41201;SDS011;26936;50.524;8.684;2023-05-16T02:50:49;29.88;;;18.35;;
41201;SDS011;26936;50.524;8.684;2023-05-16T02:53:16;30.67;;;18.52;;
41201;SDS011;26936;50.524;8.684;2023-05-16T02:55:41;30.58;;;18.20;;
41201;SDS011;26936;50.524;8.684;2023-05-16T02:58:07;30.52;;;19.60;;
41201;SDS011;26936;50.524;8.684;2023-05-16T03:00:32;29.02;;;17.75;;
41201;SDS011;26936;50.524;8.684;2023-05-16T03:02:58;30.38;;;18.92;;
41201;SDS011;26936;50.524;8.684;2023-05-16T03:05:23;31.67;;;18.50;;
41201;SDS011;26936;50.524;8.684;2023-05-16T03:07:48;28.13;;;18.10;;
41201;SDS011;26936;50.524;8.684;2023-05-16T03:10:13;31.02;;;18.80;;
41201;SDS011;26936;50.524;8.684;2023-05-16T03:12:40;34.95;;;21.33;;
41201;SDS011;26936;50.524;8.684;2023-05-16T03:15:05;36.23;;;21.53;;
41201;SDS011;26936;50.524;8.684;2023-05-16T03:17:32;40.35;;;23.63;;
41201;SDS011;26936;50.524;8.684;2023-05-16T03:19:57;44.90;;;23.47;;
41201;SDS011;26936;50.524;8.684;2023-05-16T03:22:22;42.17;;;24.37;;
41201;SDS011;26936;50.524;8.684;2023-05-16T03:24:47;42.67;;;24.60;;
41201;SDS011;26936;50.524;8.684;2023-05-16T03:27:13;41.77;;;24.13;;
41201;SDS011;26936;50.524;8.684;2023-05-16T03:29:38;37.50;;;23.02;;
41201;SDS011;26936;50.524;8.684;2023-05-16T03:32:03;42.35;;;23.33;;
41201;SDS011;26936;50.524;8.684;2023-05-16T03:34:29;39.17;;;22.70;;
41201;SDS011;26936;50.524;8.684;2023-05-16T03:36:55;44.00;;;25.83;;
41201;SDS011;26936;50.524;8.684;2023-05-16T03:39:20;41.58;;;26.00;;
41201;SDS011;26936;50.524;8.684;2023-05-16T03:41:45;43.53;;;24.95;;
41201;SDS011;26936;50.524;8.684;2023-05-16T03:44:11;44.53;;;25.30;;
41201;SDS011;26936;50.524;8.684;2023-05-16T03:46:36;46.55;;;25.38;;
41201;SDS011;26936;50.524;8.684;2023-05-16T03:49:01;47.88;;;25.00;;
41201;SDS011;26936;50.524;8.684;2023-05-16T03:51:27;46.90;;;25.43;;
41201;SDS011;26936;50.524;8.684;2023-05-16T03:53:52;44.78;;;24.27;;
41201;SDS011;26936;50.524;8.684;2023-05-16T03:56:18;47.88;;;24.98;;
41201;SDS011;26936;50.524;8.684;2023-05-16T03:58:44;43.58;;;23.83;;
41201;SDS011;26936;50.524;8.684;2023-05-16T04:01:09;45.40;;;24.70;;
41201;SDS011;26936;50.524;8.684;2023-05-16T04:03:34;43.20;;;23.77;;
41201;SDS011;26936;50.524;8.684;2023-05-16T04:06:00;42.90;;;22.75;;
41201;SDS011;26936;50.524;8.684;2023-05-16T04:08:25;41.05;;;22.52;;
41201;SDS011;26936;50.524;8.684;2023-05-16T04:10:51;39.60;;;22.00;;
41201;SDS011;26936;50.524;8.684;2023-05-16T04:13:16;39.92;;;19.70;;
41201;SDS011;26936;50.524;8.684;2023-05-16T04:15:42;36.80;;;19.25;;
41201;SDS011;26936;50.524;8.684;2023-05-16T04:18:07;35.78;;;18.10;;
41201;SDS011;26936;50.524;8.684;2023-05-16T04:20:33;36.90;;;18.25;;
41201;SDS011;26936;50.524;8.684;2023-05-16T04:22:59;35.65;;;17.35;;
41201;SDS011;26936;50.524;8.684;2023-05-16T04:25:24;31.05;;;16.60;;
41201;SDS011;26936;50.524;8.684;2023-05-16T04:27:50;35.13;;;18.23;;
41201;SDS011;26936;50.524;8.684;2023-05-16T04:30:16;35.83;;;17.70;;
41201;SDS011;26936;50.524;8.684;2023-05-16T04:32:41;35.35;;;18.17;;
41201;SDS011;26936;50.524;8.684;2023-05-16T04:35:07;34.75;;;18.58;;
41201;SDS011;26936;50.524;8.684;2023-05-16T04:37:33;34.42;;;17.88;;
41201;SDS011;26936;50.524;8.684;2023-05-16T04:39:59;34.72;;;18.27;;
41201;SDS011;26936;50.524;8.684;2023-05-16T04:42:25;24.75;;;13.75;;
41201;SDS011;26936;50.524;8.684;2023-05-16T04:44:50;17.92;;;9.60;;
41201;SDS011;26936;50.524;8.684;2023-05-16T04:47:16;10.57;;;6.65;;
41201;SDS011;26936;50.524;8.684;2023-05-16T04:49:42;10.07;;;5.97;;
41201;SDS011;26936;50.524;8.684;2023-05-16T04:52:07;9.38;;;5.80;;
41201;SDS011;26936;50.524;8.684;2023-05-16T04:54:33;10.70;;;6.05;;
41201;SDS011;26936;50.524;8.684;2023-05-16T04:56:58;8.55;;;5.75;;
41201;SDS011;26936;50.524;8.684;2023-05-16T04:59:23;9.73;;;6.22;;
41201;SDS011;26936;50.524;8.684;2023-05-16T05:01:49;9.55;;;6.32;;
41201;SDS011;26936;50.524;8.684;2023-05-16T05:04:14;9.30;;;6.80;;
41201;SDS011;26936;50.524;8.684;2023-05-16T05:06:41;10.38;;;5.53;;
41201;SDS011;26936;50.524;8.684;2023-05-16T05:09:07;9.73;;;6.05;;
41201;SDS011;26936;50.524;8.684;2023-05-16T05:11:33;9.25;;;5.85;;
41201;SDS011;26936;50.524;8.684;2023-05-16T05:13:58;9.65;;;6.38;;
41201;SDS011;26936;50.524;8.684;2023-05-16T05:16:23;10.20;;;6.28;;
41201;SDS011;26936;50.524;8.684;2023-05-16T05:18:49;12.18;;;6.55;;
41201;SDS011;26936;50.524;8.684;2023-05-16T05:21:14;10.25;;;6.20;;
41201;SDS011;26936;50.524;8.684;2023-05-16T05:23:39;10.18;;;6.57;;
41201;SDS011;26936;50.524;8.684;2023-05-16T05:26:05;11.77;;;6.70;;
41201;SDS011;26936;50.524;8.684;2023-05-16T05:28:30;11.18;;;6.45;;
41201;SDS011;26936;50.524;8.684;2023-05-16T05:30:55;11.07;;;6.90;;
41201;SDS011;26936;50.524;8.684;2023-05-16T05:33:24;10.13;;;7.10;;
41201;SDS011;26936;50.524;8.684;2023-05-16T05:35:51;11.13;;;6.80;;
41201;SDS011;26936;50.524;8.684;2023-05-16T05:38:18;11.65;;;7.15;;
41201;SDS011;26936;50.524;8.684;2023-05-16T05:40:43;10.80;;;6.65;;
41201;SDS011;26936;50.524;8.684;2023-05-16T05:43:08;12.52;;;7.32;;
41201;SDS011;26936;50.524;8.684;2023-05-16T05:45:33;11.33;;;6.93;;
41201;SDS011;26936;50.524;8.684;2023-05-16T05:47:59;11.57;;;7.15;;
41201;SDS011;26936;50.524;8.684;2023-05-16T05:50:24;9.30;;;6.40;;
41201;SDS011;26936;50.524;8.684;2023-05-16T05:52:50;10.65;;;6.22;;
41201;SDS011;26936;50.524;8.684;2023-05-16T05:55:15;10.52;;;6.40;;
41201;SDS011;26936;50.524;8.684;2023-05-16T05:57:41;10.27;;;6.10;;
41201;SDS011;26936;50.524;8.684;2023-05-16T06:00:06;8.00;;;5.47;;
41201;SDS011;26936;50.524;8.684;2023-05-16T06:02:32;10.80;;;5.57;;
41201;SDS011;26936;50.524;8.684;2023-05-16T06:04:57;9.57;;;5.90;;
41201;SDS011;26936;50.524;8.684;2023-05-16T06:07:23;10.48;;;4.70;;
41201;SDS011;26936;50.524;8.684;2023-05-16T06:09:48;6.33;;;4.20;;
41201;SDS011;26936;50.524;8.684;2023-05-16T06:12:13;8.20;;;4.80;;
41201;SDS011;26936;50.524;8.684;2023-05-16T06:14:39;5.72;;;3.88;;
41201;SDS011;26936;50.524;8.684;2023-05-16T06:17:04;5.50;;;3.72;;
41201;SDS011;26936;50.524;8.684;2023-05-16T06:19:29;5.63;;;3.00;;
41201;SDS011;26936;50.524;8.684;2023-05-16T06:21:55;4.10;;;2.53;;
41201;SDS011;26936;50.524;8.684;2023-05-16T06:24:20;3.78;;;2.42;;
41201;SDS011;26936;50.524;8.684;2023-05-16T06:26:45;5.00;;;3.10;;
41201;SDS011;26936;50.524;8.684;2023-05-16T06:29:14;5.57;;;2.10;;
41201;SDS011;26936;50.524;8.684;2023-05-16T06:31:39;3.40;;;2.03;;
41201;SDS011;26936;50.524;8.684;2023-05-16T06:34:04;3.50;;;1.80;;
41201;SDS011;26936;50.524;8.684;2023-05-16T06:36:30;2.50;;;1.70;;
41201;SDS011;26936;50.524;8.684;2023-05-16T06:38:55;2.50;;;1.85;;
41201;SDS011;26936;50.524;8.684;2023-05-16T06:41:20;2.70;;;1.40;;
41201;SDS011;26936;50.524;8.684;2023-05-16T06:43:45;1.00;;;0.70;;
41201;SDS011;26936;50.524;8.684;2023-05-16T06:46:11;1.07;;;0.77;;
41201;SDS011;26936;50.524;8.684;2023-05-16T06:48:36;2.80;;;0.70;;
41201;SDS011;26936;50.524;8.684;2023-05-16T06:51:01;0.80;;;0.40;;
41201;SDS011;26936;50.524;8.684;2023-05-16T06:53:27;1.10;;;0.57;;
41201;SDS011;26936;50.524;8.684;2023-05-16T06:55:52;1.58;;;0.60;;
41201;SDS011;26936;50.524;8.684;2023-05-16T06:58:18;1.63;;;0.68;;
41201;SDS011;26936;50.524;8.684;2023-05-16T07:00:43;0.80;;;0.68;;
41201;SDS011;26936;50.524;8.684;2023-05-16T07:03:08;0.93;;;0.65;;
41201;SDS011;26936;50.524;8.684;2023-05-16T07:05:33;0.85;;;0.70;;
41201;SDS011;26936;50.524;8.684;2023-05-16T07:07:59;0.47;;;0.47;;
41201;SDS011;26936;50.524;8.684;2023-05-16T07:10:24;1.60;;;0.70;;
41201;SDS011;26936;50.524;8.684;2023-05-16T07:12:51;2.08;;;0.70;;
41201;SDS011;26936;50.524;8.684;2023-05-16T07:15:16;1.63;;;0.60;;
41201;SDS011;26936;50.524;8.684;2023-05-16T07:17:41;2.97;;;1.10;;
41201;SDS011;26936;50.524;8.684;2023-05-16T07:20:07;1.88;;;0.98;;
41201;SDS011;26936;50.524;8.684;2023-05-16T07:22:37;1.45;;;0.70;;
41201;SDS011;26936;50.524;8.684;2023-05-16T07:25:02;3.03;;;0.70;;
41201;SDS011;26936;50.524;8.684;2023-05-16T07:27:28;4.22;;;0.90;;
41201;SDS011;26936;50.524;8.684;2023-05-16T07:29:54;1.67;;;0.88;;
41201;SDS011;26936;50.524;8.684;2023-05-16T07:32:19;3.17;;;0.93;;
41201;SDS011;26936;50.524;8.684;2023-05-16T07:34:45;1.88;;;0.98;;
41201;SDS011;26936;50.524;8.684;2023-05-16T07:37:10;2.22;;;1.05;;
41201;SDS011;26936;50.524;8.684;2023-05-16T07:39:39;5.30;;;1.10;;
41201;SDS011;26936;50.524;8.684;2023-05-16T07:42:05;1.08;;;0.82;;
41201;SDS011;26936;50.524;8.684;2023-05-16T07:44:31;2.83;;;0.90;;
41201;SDS011;26936;50.524;8.684;2023-05-16T07:46:56;2.73;;;0.90;;
41201;SDS011;26936;50.524;8.684;2023-05-16T07:49:21;3.53;;;0.90;;
41201;SDS011;26936;50.524;8.684;2023-05-16T07:51:47;0.87;;;0.83;;
41201;SDS011;26936;50.524;8.684;2023-05-16T07:54:12;1.75;;;0.90;;
41201;SDS011;26936;50.524;8.684;2023-05-16T07:56:37;2.33;;;1.03;;
41201;SDS011;26936;50.524;8.684;2023-05-16T07:59:03;4.72;;;1.35;;
41201;SDS011;26936;50.524;8.684;2023-05-16T08:01:29;2.28;;;1.20;;
41201;SDS011;26936;50.524;8.684;2023-05-16T08:03:55;2.97;;;1.35;;
41201;SDS011;26936;50.524;8.684;2023-05-16T08:06:20;7.43;;;2.23;;
41201;SDS011;26936;50.524;8.684;2023-05-16T08:08:45;2.77;;;1.30;;
41201;SDS011;26936;50.524;8.684;2023-05-16T08:11:10;7.10;;;1.70;;
41201;SDS011;26936;50.524;8.684;2023-05-16T08:13:36;6.40;;;1.05;;
41201;SDS011;26936;50.524;8.684;2023-05-16T08:16:01;6.28;;;1.55;;
41201;SDS011;26936;50.524;8.684;2023-05-16T08:18:27;3.67;;;1.38;;
41201;SDS011;26936;50.524;8.684;2023-05-16T08:20:52;6.43;;;1.47;;
41201;SDS011;26936;50.524;8.684;2023-05-16T08:23:17;5.47;;;1.63;;
41201;SDS011;26936;50.524;8.684;2023-05-16T08:25:42;6.20;;;1.50;;
41201;SDS011;26936;50.524;8.684;2023-05-16T08:28:08;4.65;;;1.27;;
41201;SDS011;26936;50.524;8.684;2023-05-16T08:30:33;6.90;;;1.63;;
41201;SDS011;26936;50.524;8.684;2023-05-16T08:32:58;6.20;;;2.15;;
41201;SDS011;26936;50.524;8.684;2023-05-16T08:35:28;6.18;;;1.45;;
41201;SDS011;26936;50.524;8.684;2023-05-16T08:37:54;3.15;;;1.20;;
41201;SDS011;26936;50.524;8.684;2023-05-16T08:40:19;4.30;;;1.40;;
41201;SDS011;26936;50.524;8.684;2023-05-16T08:42:48;5.13;;;1.40;;
41201;SDS011;26936;50.524;8.684;2023-05-16T08:45:14;4.35;;;1.30;;
41201;SDS011;26936;50.524;8.684;2023-05-16T08:47:39;4.70;;;1.50;;
41201;SDS011;26936;50.524;8.684;2023-05-16T08:50:08;4.63;;;1.33;;
41201;SDS011;26936;50.524;8.684;2023-05-16T08:52:34;4.55;;;1.60;;
41201;SDS011;26936;50.524;8.684;2023-05-16T08:55:03;6.13;;;1.40;;
41201;SDS011;26936;50.524;8.684;2023-05-16T08:57:35;5.07;;;1.40;;
41201;SDS011;26936;50.524;8.684;2023-05-16T09:00:01;6.10;;;1.15;;
41201;SDS011;26936;50.524;8.684;2023-05-16T09:02:31;6.03;;;2.00;;
41201;SDS011;26936;50.524;8.684;2023-05-16T09:04:56;5.75;;;1.52;;
41201;SDS011;26936;50.524;8.684;2023-05-16T09:07:23;5.07;;;1.42;;
41201;SDS011;26936;50.524;8.684;2023-05-16T09:09:48;6.15;;;1.38;;
41201;SDS011;26936;50.524;8.684;2023-05-16T09:12:14;5.65;;;1.30;;
41201;SDS011;26936;50.524;8.684;2023-05-16T09:14:40;7.70;;;1.50;;
41201;SDS011;26936;50.524;8.684;2023-05-16T09:17:06;8.43;;;1.60;;
41201;SDS011;26936;50.524;8.684;2023-05-16T09:19:36;5.97;;;1.42;;
41201;SDS011;26936;50.524;8.684;2023-05-16T09:22:14;5.38;;;1.30;;
41201;SDS011;26936;50.524;8.684;2023-05-16T09:24:43;4.85;;;1.58;;
41201;SDS011;26936;50.524;8.684;2023-05-16T09:27:13;4.78;;;1.60;;
41201;SDS011;26936;50.524;8.684;2023-05-16T09:29:43;6.80;;;1.73;;
41201;SDS011;26936;50.524;8.684;2023-05-16T09:32:14;13.68;;;1.90;;
41201;SDS011;26936;50.524;8.684;2023-05-16T09:34:44;8.52;;;2.03;;
41201;SDS011;26936;50.524;8.684;2023-05-16T09:37:12;7.97;;;1.92;;
41201;SDS011;26936;50.524;8.684;2023-05-16T09:39:45;8.07;;;1.50;;
41201;SDS011;26936;50.524;8.684;2023-05-16T09:42:13;8.68;;;1.48;;
41201;SDS011;26936;50.524;8.684;2023-05-16T09:44:40;5.32;;;1.42;;
41201;SDS011;26936;50.524;8.684;2023-05-16T09:47:06;5.95;;;1.50;;
41201;SDS011;26936;50.524;8.684;2023-05-16T09:49:31;6.15;;;1.55;;
41201;SDS011;26936;50.524;8.684;2023-05-16T09:52:03;5.90;;;1.75;;
41201;SDS011;26936;50.524;8.684;2023-05-16T09:54:32;6.00;;;1.30;;
41201;SDS011;26936;50.524;8.684;2023-05-16T09:56:59;9.18;;;1.48;;
41201;SDS011;26936;50.524;8.684;2023-05-16T09:59:24;7.10;;;1.42;;
41201;SDS011;26936;50.524;8.684;2023-05-16T10:01:52;6.20;;;1.40;;
41201;SDS011;26936;50.524;8.684;2023-05-16T10:04:18;4.13;;;0.90;;
41201;SDS011;26936;50.524;8.684;2023-05-16T10:06:44;7.18;;;1.73;;
41201;SDS011;26936;50.524;8.684;2023-05-16T10:09:10;10.13;;;1.45;;
41201;SDS011;26936;50.524;8.684;2023-05-16T10:11:37;6.18;;;1.48;;
41201;SDS011;26936;50.524;8.684;2023-05-16T10:14:06;6.97;;;1.52;;
41201;SDS011;26936;50.524;8.684;2023-05-16T10:16:33;8.10;;;1.25;;
41201;SDS011;26936;50.524;8.684;2023-05-16T10:18:59;4.22;;;1.02;;
41201;SDS011;26936;50.524;8.684;2023-05-16T10:21:27;7.55;;;1.45;;
41201;SDS011;26936;50.524;8.684;2023-05-16T10:23:55;5.63;;;1.13;;
41201;SDS011;26936;50.524;8.684;2023-05-16T10:26:22;4.82;;;1.10;;
41201;SDS011;26936;50.524;8.684;2023-05-16T10:28:48;7.45;;;1.80;;
41201;SDS011;26936;50.524;8.684;2023-05-16T10:31:15;5.88;;;1.25;;
41201;SDS011;26936;50.524;8.684;2023-05-16T10:33:40;6.93;;;1.40;;
41201;SDS011;26936;50.524;8.684;2023-05-16T10:36:09;4.72;;;1.10;;
41201;SDS011;26936;50.524;8.684;2023-05-16T10:38:36;5.13;;;1.23;;
41201;SDS011;26936;50.524;8.684;2023-05-16T10:41:02;4.55;;;1.27;;
41201;SDS011;26936;50.524;8.684;2023-05-16T10:43:29;5.63;;;1.20;;
41201;SDS011;26936;50.524;8.684;2023-05-16T10:46:07;5.20;;;1.25;;
41201;SDS011;26936;50.524;8.684;2023-05-16T10:48:37;6.88;;;1.38;;
41201;SDS011;26936;50.524;8.684;2023-05-16T10:53:50;7.28;;;1.77;;
41201;SDS011;26936;50.524;8.684;2023-05-16T10:56:16;5.43;;;1.20;;
41201;SDS011;26936;50.524;8.684;2023-05-16T10:58:47;4.47;;;1.17;;
41201;SDS011;26936;50.524;8.684;2023-05-16T11:01:17;5.13;;;1.30;;
41201;SDS011;26936;50.524;8.684;2023-05-16T11:06:22;5.25;;;1.20;;
41201;SDS011;26936;50.524;8.684;2023-05-16T11:14:20;4.18;;;0.90;;
41201;SDS011;26936;50.524;8.684;2023-05-16T11:19:29;3.00;;;0.88;;
41201;SDS011;26936;50.524;8.684;2023-05-16T11:24:51;4.32;;;1.10;;
41201;SDS011;26936;50.524;8.684;2023-05-16T11:27:20;4.95;;;1.20;;
41201;SDS011;26936;50.524;8.684;2023-05-16T11:29:53;4.43;;;0.77;;
41201;SDS011;26936;50.524;8.684;2023-05-16T11:32:20;6.78;;;1.25;;
41201;SDS011;26936;50.524;8.684;2023-05-16T11:34:47;5.30;;;1.00;;
41201;SDS011;26936;50.524;8.684;2023-05-16T11:37:13;4.32;;;1.00;;
41201;SDS011;26936;50.524;8.684;2023-05-16T11:39:39;4.18;;;0.88;;
41201;SDS011;26936;50.524;8.684;2023-05-16T11:42:05;3.08;;;0.90;;
41201;SDS011;26936;50.524;8.684;2023-05-16T11:44:30;4.68;;;0.82;;
41201;SDS011;26936;50.524;8.684;2023-05-16T11:46:56;4.90;;;1.00;;
41201;SDS011;26936;50.524;8.684;2023-05-16T11:49:21;5.05;;;0.80;;
41201;SDS011;26936;50.524;8.684;2023-05-16T11:51:47;5.72;;;0.80;;
41201;SDS011;26936;50.524;8.684;2023-05-16T11:54:13;2.10;;;0.82;;
41201;SDS011;26936;50.524;8.684;2023-05-16T11:56:39;4.25;;;0.93;;
41201;SDS011;26936;50.524;8.684;2023-05-16T11:59:05;2.10;;;0.80;;
41201;SDS011;26936;50.524;8.684;2023-05-16T12:01:34;7.65;;;1.00;;
41201;SDS011;26936;50.524;8.684;2023-05-16T12:04:10;3.17;;;0.80;;
41201;SDS011;26936;50.524;8.684;2023-05-16T12:06:37;3.83;;;0.82;;
41201;SDS011;26936;50.524;8.684;2023-05-16T12:09:05;2.58;;;0.90;;
41201;SDS011;26936;50.524;8.684;2023-05-16T12:11:38;3.10;;;0.77;;
41201;SDS011;26936;50.524;8.684;2023-05-16T12:14:04;2.30;;;0.77;;
41201;SDS011;26936;50.524;8.684;2023-05-16T12:16:31;3.50;;;0.90;;
41201;SDS011;26936;50.524;8.684;2023-05-16T12:18:57;5.82;;;1.00;;
41201;SDS011;26936;50.524;8.684;2023-05-16T12:21:23;6.03;;;1.02;;
41201;SDS011;26936;50.524;8.684;2023-05-16T12:23:49;3.25;;;0.80;;
41201;SDS011;26936;50.524;8.684;2023-05-16T12:26:25;4.13;;;0.88;;
41201;SDS011;26936;50.524;8.684;2023-05-16T12:28:52;3.80;;;0.73;;
41201;SDS011;26936;50.524;8.684;2023-05-16T12:31:20;5.43;;;0.80;;
41201;SDS011;26936;50.524;8.684;2023-05-16T12:33:45;5.07;;;0.90;;
41201;SDS011;26936;50.524;8.684;2023-05-16T12:36:13;4.55;;;0.77;;
41201;SDS011;26936;50.524;8.684;2023-05-16T12:38:45;5.82;;;1.00;;
41201;SDS011;26936;50.524;8.684;2023-05-16T12:41:11;3.05;;;0.85;;
41201;SDS011;26936;50.524;8.684;2023-05-16T12:43:41;6.35;;;1.30;;
41201;SDS011;26936;50.524;8.684;2023-05-16T12:46:08;4.17;;;1.07;;
41201;SDS011;26936;50.524;8.684;2023-05-16T12:48:35;3.35;;;0.77;;
41201;SDS011;26936;50.524;8.684;2023-05-16T12:51:13;4.68;;;1.02;;
41201;SDS011;26936;50.524;8.684;2023-05-16T12:53:41;3.28;;;0.70;;
41201;SDS011;26936;50.524;8.684;2023-05-16T12:56:09;4.03;;;1.30;;
41201;SDS011;26936;50.524;8.684;2023-05-16T12:58:35;3.35;;;0.98;;
41201;SDS011;26936;50.524;8.684;2023-05-16T13:01:01;5.10;;;1.25;;
41201;SDS011;26936;50.524;8.684;2023-05-16T13:03:27;4.18;;;1.15;;
41201;SDS011;26936;50.524;8.684;2023-05-16T13:05:52;4.90;;;0.85;;
41201;SDS011;26936;50.524;8.684;2023-05-16T13:08:18;4.97;;;0.77;;
41201;SDS011;26936;50.524;8.684;2023-05-16T13:10:44;5.15;;;0.60;;
41201;SDS011;26936;50.524;8.684;2023-05-16T13:13:09;3.80;;;0.70;;
41201;SDS011;26936;50.524;8.684;2023-05-16T13:15:34;6.25;;;1.15;;
41201;SDS011;26936;50.524;8.684;2023-05-16T13:18:00;4.07;;;0.60;;
41201;SDS011;26936;50.524;8.684;2023-05-16T13:20:25;4.60;;;0.80;;
41201;SDS011;26936;50.524;8.684;2023-05-16T13:22:50;5.60;;;0.80;;
41201;SDS011;26936;50.524;8.684;2023-05-16T13:25:16;5.47;;;0.93;;
41201;SDS011;26936;50.524;8.684;2023-05-16T13:27:41;2.67;;;0.82;;
41201;SDS011;26936;50.524;8.684;2023-05-16T13:30:07;3.55;;;1.00;;
41201;SDS011;26936;50.524;8.684;2023-05-16T13:32:32;3.75;;;0.95;;
41201;SDS011;26936;50.524;8.684;2023-05-16T13:34:58;6.75;;;1.25;;
41201;SDS011;26936;50.524;8.684;2023-05-16T13:37:23;6.85;;;1.30;;
41201;SDS011;26936;50.524;8.684;2023-05-16T13:39:48;3.17;;;0.68;;
41201;SDS011;26936;50.524;8.684;2023-05-16T13:42:14;3.17;;;0.80;;
41201;SDS011;26936;50.524;8.684;2023-05-16T13:44:39;4.93;;;1.17;;
41201;SDS011;26936;50.524;8.684;2023-05-16T13:47:05;3.75;;;0.98;;
41201;SDS011;26936;50.524;8.684;2023-05-16T13:49:30;3.28;;;0.77;;
41201;SDS011;26936;50.524;8.684;2023-05-16T13:51:55;4.07;;;0.70;;
41201;SDS011;26936;50.524;8.684;2023-05-16T13:54:22;3.42;;;1.00;;
41201;SDS011;26936;50.524;8.684;2023-05-16T13:56:47;4.13;;;0.70;;
41201;SDS011;26936;50.524;8.684;2023-05-16T13:59:13;3.75;;;0.70;;
41201;SDS011;26936;50.524;8.684;2023-05-16T14:01:38;4.72;;;0.80;;
41201;SDS011;26936;50.524;8.684;2023-05-16T14:04:03;5.70;;;1.00;;
41201;SDS011;26936;50.524;8.684;2023-05-16T14:06:29;4.88;;;0.85;;
41201;SDS011;26936;50.524;8.684;2023-05-16T14:08:55;3.30;;;0.60;;
41201;SDS011;26936;50.524;8.684;2023-05-16T14:11:20;3.07;;;0.70;;
41201;SDS011;26936;50.524;8.684;2023-05-16T14:13:50;4.32;;;0.82;;
41201;SDS011;26936;50.524;8.684;2023-05-16T14:16:15;4.85;;;0.70;;
41201;SDS011;26936;50.524;8.684;2023-05-16T14:18:40;4.20;;;0.75;;
41201;SDS011;26936;50.524;8.684;2023-05-16T14:21:05;2.30;;;0.43;;
41201;SDS011;26936;50.524;8.684;2023-05-16T14:23:31;2.92;;;0.90;;
41201;SDS011;26936;50.524;8.684;2023-05-16T14:25:56;2.97;;;0.50;;
41201;SDS011;26936;50.524;8.684;2023-05-16T14:28:21;2.97;;;0.60;;
41201;SDS011;26936;50.524;8.684;2023-05-16T14:30:46;3.45;;;0.60;;
41201;SDS011;26936;50.524;8.684;2023-05-16T14:33:12;3.23;;;0.80;;
41201;SDS011;26936;50.524;8.684;2023-05-16T14:35:39;1.93;;;0.73;;
41201;SDS011;26936;50.524;8.684;2023-05-16T14:38:05;2.53;;;0.60;;
41201;SDS011;26936;50.524;8.684;2023-05-16T14:40:31;3.13;;;0.50;;
41201;SDS011;26936;50.524;8.684;2023-05-16T14:42:56;2.72;;;0.80;;
41201;SDS011;26936;50.524;8.684;2023-05-16T14:45:21;3.90;;;0.60;;
41201;SDS011;26936;50.524;8.684;2023-05-16T14:47:47;3.17;;;0.60;;
41201;SDS011;26936;50.524;8.684;2023-05-16T14:50:12;5.07;;;0.73;;
41201;SDS011;26936;50.524;8.684;2023-05-16T14:52:38;5.30;;;0.80;;
41201;SDS011;26936;50.524;8.684;2023-05-16T14:55:04;5.30;;;0.52;;